sensor_id;sensor_type;location;lat;lon;timestamp;temperature;humidity
33139;DHT22;19501;50.948;5.316;2023-06-26T00:01:18;24.20;99.90
33139;DHT22;19501;50.948;5.316;2023-06-26T00:03:46;24.20;99.90
33139;DHT22;19501;50.948;5.316;2023-06-26T00:06:12;24.20;99.90
33139;DHT22;19501;50.948;5.316;2023-06-26T00:08:38;24.20;99.90
33139;DHT22;19501;50.948;5.316;2023-06-26T00:11:04;24.10;99.90
33139;DHT22;19501;50.948;5.316;2023-06-26T00:13:31;24.10;99.90
33139;DHT22;19501;50.948;5.316;2023-06-26T00:15:57;24.00;99.90
33139;DHT22;19501;50.948;5.316;2023-06-26T00:18:23;24.10;99.90
33139;DHT22;19501;50.948;5.316;2023-06-26T00:20:49;24.00;99.90
33139;DHT22;19501;50.948;5.316;2023-06-26T00:23:16;23.90;99.90
33139;DHT22;19501;50.948;5.316;2023-06-26T00:25:43;24.00;99.90
33139;DHT22;19501;50.948;5.316;2023-06-26T00:28:09;23.90;99.90
33139;DHT22;19501;50.948;5.316;2023-06-26T00:30:34;23.70;99.90
33139;DHT22;19501;50.948;5.316;2023-06-26T00:33:00;23.80;99.90
33139;DHT22;19501;50.948;5.316;2023-06-26T00:35:26;23.80;99.90
33139;DHT22;19501;50.948;5.316;2023-06-26T00:37:52;23.80;99.90
33139;DHT22;19501;50.948;5.316;2023-06-26T00:40:17;23.80;99.90
33139;DHT22;19501;50.948;5.316;2023-06-26T00:42:43;23.80;99.90
33139;DHT22;19501;50.948;5.316;2023-06-26T00:45:09;23.90;99.90
33139;DHT22;19501;50.948;5.316;2023-06-26T00:47:35;23.70;99.90
33139;DHT22;19501;50.948;5.316;2023-06-26T00:50:01;23.70;99.90
33139;DHT22;19501;50.948;5.316;2023-06-26T00:52:27;23.60;99.90
33139;DHT22;19501;50.948;5.316;2023-06-26T00:54:53;23.60;99.90
33139;DHT22;19501;50.948;5.316;2023-06-26T00:57:18;23.60;99.90
33139;DHT22;19501;50.948;5.316;2023-06-26T00:59:44;23.50;99.90
33139;DHT22;19501;50.948;5.316;2023-06-26T01:02:10;23.30;99.90
33139;DHT22;19501;50.948;5.316;2023-06-26T01:04:36;23.40;99.90
33139;DHT22;19501;50.948;5.316;2023-06-26T01:07:02;23.30;99.90
33139;DHT22;19501;50.948;5.316;2023-06-26T01:09:29;23.30;99.90
33139;DHT22;19501;50.948;5.316;2023-06-26T01:11:55;23.30;99.90
33139;DHT22;19501;50.948;5.316;2023-06-26T01:14:20;23.30;99.90
33139;DHT22;19501;50.948;5.316;2023-06-26T01:16:47;23.40;99.90
33139;DHT22;19501;50.948;5.316;2023-06-26T01:19:25;23.40;99.90
33139;DHT22;19501;50.948;5.316;2023-06-26T01:21:58;23.30;99.90
33139;DHT22;19501;50.948;5.316;2023-06-26T01:24:32;23.30;99.90
33139;DHT22;19501;50.948;5.316;2023-06-26T01:26:59;23.30;99.90
33139;DHT22;19501;50.948;5.316;2023-06-26T01:29:26;23.20;99.90
33139;DHT22;19501;50.948;5.316;2023-06-26T01:31:56;23.30;99.90
33139;DHT22;19501;50.948;5.316;2023-06-26T01:34:22;23.40;99.90
33139;DHT22;19501;50.948;5.316;2023-06-26T01:36:48;23.20;99.90
33139;DHT22;19501;50.948;5.316;2023-06-26T01:39:17;23.20;99.90
33139;DHT22;19501;50.948;5.316;2023-06-26T01:41:43;23.20;99.90
33139;DHT22;19501;50.948;5.316;2023-06-26T01:44:28;23.20;99.90
33139;DHT22;19501;50.948;5.316;2023-06-26T01:47:04;23.10;99.90
33139;DHT22;19501;50.948;5.316;2023-06-26T01:54:39;23.10;99.90
33139;DHT22;19501;50.948;5.316;2023-06-26T01:57:07;23.10;99.90
33139;DHT22;19501;50.948;5.316;2023-06-26T01:59:34;23.00;99.90
33139;DHT22;19501;50.948;5.316;2023-06-26T02:02:07;22.90;99.90
33139;DHT22;19501;50.948;5.316;2023-06-26T02:04:33;22.80;99.90
33139;DHT22;19501;50.948;5.316;2023-06-26T02:06:58;22.90;99.90
33139;DHT22;19501;50.948;5.316;2023-06-26T02:09:24;22.80;99.90
33139;DHT22;19501;50.948;5.316;2023-06-26T02:11:50;22.70;99.90
33139;DHT22;19501;50.948;5.316;2023-06-26T02:14:16;22.50;99.90
33139;DHT22;19501;50.948;5.316;2023-06-26T02:16:42;22.50;99.90
33139;DHT22;19501;50.948;5.316;2023-06-26T02:19:07;22.40;99.90
33139;DHT22;19501;50.948;5.316;2023-06-26T02:21:33;22.30;99.90
33139;DHT22;19501;50.948;5.316;2023-06-26T02:23:58;22.30;99.90
33139;DHT22;19501;50.948;5.316;2023-06-26T02:26:24;22.10;99.90
33139;DHT22;19501;50.948;5.316;2023-06-26T02:28:50;22.00;99.90
33139;DHT22;19501;50.948;5.316;2023-06-26T02:31:15;22.00;99.90
33139;DHT22;19501;50.948;5.316;2023-06-26T02:33:41;21.90;99.90
33139;DHT22;19501;50.948;5.316;2023-06-26T02:36:07;21.80;99.90
33139;DHT22;19501;50.948;5.316;2023-06-26T02:38:33;21.70;99.90
33139;DHT22;19501;50.948;5.316;2023-06-26T02:40:59;21.70;99.90
33139;DHT22;19501;50.948;5.316;2023-06-26T02:43:24;21.60;99.90
33139;DHT22;19501;50.948;5.316;2023-06-26T02:45:50;21.60;99.90
33139;DHT22;19501;50.948;5.316;2023-06-26T02:48:16;21.60;99.90
33139;DHT22;19501;50.948;5.316;2023-06-26T02:50:41;21.50;99.90
33139;DHT22;19501;50.948;5.316;2023-06-26T02:53:07;21.50;99.90
33139;DHT22;19501;50.948;5.316;2023-06-26T02:55:34;21.40;99.90
33139;DHT22;19501;50.948;5.316;2023-06-26T02:58:00;21.30;99.90
33139;DHT22;19501;50.948;5.316;2023-06-26T03:00:25;21.30;99.90
33139;DHT22;19501;50.948;5.316;2023-06-26T03:02:51;21.30;99.90
33139;DHT22;19501;50.948;5.316;2023-06-26T03:05:16;21.10;99.90
33139;DHT22;19501;50.948;5.316;2023-06-26T03:07:42;21.20;99.90
33139;DHT22;19501;50.948;5.316;2023-06-26T03:10:08;21.20;99.90
33139;DHT22;19501;50.948;5.316;2023-06-26T03:12:33;21.00;99.90
33139;DHT22;19501;50.948;5.316;2023-06-26T03:15:01;21.00;99.90
33139;DHT22;19501;50.948;5.316;2023-06-26T03:17:28;21.00;99.90
33139;DHT22;19501;50.948;5.316;2023-06-26T03:19:54;21.00;99.90
33139;DHT22;19501;50.948;5.316;2023-06-26T03:22:21;21.00;99.90
33139;DHT22;19501;50.948;5.316;2023-06-26T03:24:47;21.00;99.90
33139;DHT22;19501;50.948;5.316;2023-06-26T03:27:12;21.00;99.90
33139;DHT22;19501;50.948;5.316;2023-06-26T03:29:38;20.90;99.90
33139;DHT22;19501;50.948;5.316;2023-06-26T03:32:04;20.80;99.90
33139;DHT22;19501;50.948;5.316;2023-06-26T03:34:32;20.70;99.90
33139;DHT22;19501;50.948;5.316;2023-06-26T03:37:00;20.70;99.90
33139;DHT22;19501;50.948;5.316;2023-06-26T03:39:27;20.60;99.90
33139;DHT22;19501;50.948;5.316;2023-06-26T03:41:52;20.60;99.90
33139;DHT22;19501;50.948;5.316;2023-06-26T03:44:22;20.40;99.90
33139;DHT22;19501;50.948;5.316;2023-06-26T03:46:47;20.40;99.90
33139;DHT22;19501;50.948;5.316;2023-06-26T03:49:13;20.40;99.90
33139;DHT22;19501;50.948;5.316;2023-06-26T03:51:39;20.40;99.90
33139;DHT22;19501;50.948;5.316;2023-06-26T03:54:04;20.40;99.90
33139;DHT22;19501;50.948;5.316;2023-06-26T03:56:30;20.20;99.90
33139;DHT22;19501;50.948;5.316;2023-06-26T03:58:56;20.10;99.90
33139;DHT22;19501;50.948;5.316;2023-06-26T04:01:21;19.90;99.90
33139;DHT22;19501;50.948;5.316;2023-06-26T04:03:47;19.90;99.90
33139;DHT22;19501;50.948;5.316;2023-06-26T04:06:15;20.00;99.90
33139;DHT22;19501;50.948;5.316;2023-06-26T04:08:41;20.00;99.90
33139;DHT22;19501;50.948;5.316;2023-06-26T04:11:06;19.90;99.90
33139;DHT22;19501;50.948;5.316;2023-06-26T04:13:32;19.90;99.90
33139;DHT22;19501;50.948;5.316;2023-06-26T04:15:57;20.00;99.90
33139;DHT22;19501;50.948;5.316;2023-06-26T04:18:23;20.10;99.90
33139;DHT22;19501;50.948;5.316;2023-06-26T04:21:12;20.00;99.90
33139;DHT22;19501;50.948;5.316;2023-06-26T04:23:39;19.80;99.90
33139;DHT22;19501;50.948;5.316;2023-06-26T04:26:05;19.70;99.90
33139;DHT22;19501;50.948;5.316;2023-06-26T04:28:32;19.70;99.90
33139;DHT22;19501;50.948;5.316;2023-06-26T04:30:58;19.90;99.90
33139;DHT22;19501;50.948;5.316;2023-06-26T04:33:24;20.00;99.90
33139;DHT22;19501;50.948;5.316;2023-06-26T04:35:51;20.00;99.90
33139;DHT22;19501;50.948;5.316;2023-06-26T04:38:18;20.00;99.90
33139;DHT22;19501;50.948;5.316;2023-06-26T04:40:43;20.10;99.90
33139;DHT22;19501;50.948;5.316;2023-06-26T04:43:09;20.10;99.90
33139;DHT22;19501;50.948;5.316;2023-06-26T04:45:35;20.10;99.90
33139;DHT22;19501;50.948;5.316;2023-06-26T04:48:01;20.00;99.90
33139;DHT22;19501;50.948;5.316;2023-06-26T04:50:27;20.00;99.90
33139;DHT22;19501;50.948;5.316;2023-06-26T04:52:55;20.00;99.90
33139;DHT22;19501;50.948;5.316;2023-06-26T04:55:20;19.80;99.90
33139;DHT22;19501;50.948;5.316;2023-06-26T04:57:47;19.70;99.90
33139;DHT22;19501;50.948;5.316;2023-06-26T05:00:13;19.60;99.90
33139;DHT22;19501;50.948;5.316;2023-06-26T05:02:43;19.60;99.90
33139;DHT22;19501;50.948;5.316;2023-06-26T05:05:09;19.60;99.90
33139;DHT22;19501;50.948;5.316;2023-06-26T05:07:36;19.70;99.90
33139;DHT22;19501;50.948;5.316;2023-06-26T05:10:02;19.90;99.90
33139;DHT22;19501;50.948;5.316;2023-06-26T05:12:27;19.90;99.90
33139;DHT22;19501;50.948;5.316;2023-06-26T05:14:55;20.00;99.90
33139;DHT22;19501;50.948;5.316;2023-06-26T05:17:21;19.90;99.90
33139;DHT22;19501;50.948;5.316;2023-06-26T05:19:46;19.90;99.90
33139;DHT22;19501;50.948;5.316;2023-06-26T05:22:13;19.90;99.90
33139;DHT22;19501;50.948;5.316;2023-06-26T05:24:39;19.90;99.90
33139;DHT22;19501;50.948;5.316;2023-06-26T05:27:06;20.00;99.90
33139;DHT22;19501;50.948;5.316;2023-06-26T05:29:32;19.90;99.90
33139;DHT22;19501;50.948;5.316;2023-06-26T05:32:01;20.00;99.90
33139;DHT22;19501;50.948;5.316;2023-06-26T05:34:27;20.00;99.90
33139;DHT22;19501;50.948;5.316;2023-06-26T05:36:57;20.00;99.90
33139;DHT22;19501;50.948;5.316;2023-06-26T05:39:24;20.00;99.90
33139;DHT22;19501;50.948;5.316;2023-06-26T05:41:50;20.00;99.90
33139;DHT22;19501;50.948;5.316;2023-06-26T05:44:18;19.90;99.90
33139;DHT22;19501;50.948;5.316;2023-06-26T05:46:45;19.80;99.90
33139;DHT22;19501;50.948;5.316;2023-06-26T05:49:11;19.70;99.90
33139;DHT22;19501;50.948;5.316;2023-06-26T05:51:37;19.80;99.90
33139;DHT22;19501;50.948;5.316;2023-06-26T05:54:03;19.90;99.90
33139;DHT22;19501;50.948;5.316;2023-06-26T05:56:29;19.90;99.90
33139;DHT22;19501;50.948;5.316;2023-06-26T05:58:55;20.10;99.90
33139;DHT22;19501;50.948;5.316;2023-06-26T06:01:21;20.10;99.90
33139;DHT22;19501;50.948;5.316;2023-06-26T06:03:47;20.20;99.90
33139;DHT22;19501;50.948;5.316;2023-06-26T06:06:13;20.00;99.90
33139;DHT22;19501;50.948;5.316;2023-06-26T06:08:51;20.10;99.90
33139;DHT22;19501;50.948;5.316;2023-06-26T06:11:20;19.90;99.90
33139;DHT22;19501;50.948;5.316;2023-06-26T06:13:45;19.80;99.90
33139;DHT22;19501;50.948;5.316;2023-06-26T06:16:11;19.90;99.90
33139;DHT22;19501;50.948;5.316;2023-06-26T06:18:36;20.00;99.90
33139;DHT22;19501;50.948;5.316;2023-06-26T06:21:02;20.00;99.90
33139;DHT22;19501;50.948;5.316;2023-06-26T06:23:29;20.10;99.90
33139;DHT22;19501;50.948;5.316;2023-06-26T06:25:54;20.10;99.90
33139;DHT22;19501;50.948;5.316;2023-06-26T06:28:20;20.20;99.90
33139;DHT22;19501;50.948;5.316;2023-06-26T06:30:46;20.10;99.90
33139;DHT22;19501;50.948;5.316;2023-06-26T06:33:15;20.10;99.90
33139;DHT22;19501;50.948;5.316;2023-06-26T06:35:41;20.20;99.90
33139;DHT22;19501;50.948;5.316;2023-06-26T06:38:06;20.20;99.90
33139;DHT22;19501;50.948;5.316;2023-06-26T06:40:34;20.10;99.90
33139;DHT22;19501;50.948;5.316;2023-06-26T06:43:00;20.10;99.90
33139;DHT22;19501;50.948;5.316;2023-06-26T06:45:25;20.20;99.90
33139;DHT22;19501;50.948;5.316;2023-06-26T06:47:51;20.20;99.90
33139;DHT22;19501;50.948;5.316;2023-06-26T06:50:17;20.20;99.90
33139;DHT22;19501;50.948;5.316;2023-06-26T06:52:43;20.10;99.90
33139;DHT22;19501;50.948;5.316;2023-06-26T06:55:09;20.10;99.90
33139;DHT22;19501;50.948;5.316;2023-06-26T06:57:36;20.30;99.90
33139;DHT22;19501;50.948;5.316;2023-06-26T07:00:12;20.30;99.90
33139;DHT22;19501;50.948;5.316;2023-06-26T07:02:42;20.50;99.90
33139;DHT22;19501;50.948;5.316;2023-06-26T07:05:08;20.50;99.90
33139;DHT22;19501;50.948;5.316;2023-06-26T07:07:35;20.50;99.90
33139;DHT22;19501;50.948;5.316;2023-06-26T07:10:06;20.50;99.90
33139;DHT22;19501;50.948;5.316;2023-06-26T07:12:33;20.70;99.90
33139;DHT22;19501;50.948;5.316;2023-06-26T07:15:04;20.80;99.90
33139;DHT22;19501;50.948;5.316;2023-06-26T07:17:30;20.80;99.90
33139;DHT22;19501;50.948;5.316;2023-06-26T07:19:56;20.70;99.90
33139;DHT22;19501;50.948;5.316;2023-06-26T07:22:23;20.80;99.90
33139;DHT22;19501;50.948;5.316;2023-06-26T07:24:49;20.90;99.90
33139;DHT22;19501;50.948;5.316;2023-06-26T07:27:17;21.10;99.90
33139;DHT22;19501;50.948;5.316;2023-06-26T07:29:46;21.20;99.90
33139;DHT22;19501;50.948;5.316;2023-06-26T07:32:12;21.10;99.90
33139;DHT22;19501;50.948;5.316;2023-06-26T07:34:37;21.10;99.90
33139;DHT22;19501;50.948;5.316;2023-06-26T07:37:03;21.00;99.90
33139;DHT22;19501;50.948;5.316;2023-06-26T07:39:29;21.00;99.90
33139;DHT22;19501;50.948;5.316;2023-06-26T07:41:57;21.10;99.90
33139;DHT22;19501;50.948;5.316;2023-06-26T07:44:26;21.20;99.90
33139;DHT22;19501;50.948;5.316;2023-06-26T07:46:51;21.20;99.90
33139;DHT22;19501;50.948;5.316;2023-06-26T07:49:17;21.10;99.90
33139;DHT22;19501;50.948;5.316;2023-06-26T07:51:43;21.00;99.90
33139;DHT22;19501;50.948;5.316;2023-06-26T07:54:08;21.20;99.90
33139;DHT22;19501;50.948;5.316;2023-06-26T07:56:57;21.40;99.90
33139;DHT22;19501;50.948;5.316;2023-06-26T07:59:24;21.40;99.90
33139;DHT22;19501;50.948;5.316;2023-06-26T08:01:51;21.40;99.90
33139;DHT22;19501;50.948;5.316;2023-06-26T08:04:21;21.40;99.90
33139;DHT22;19501;50.948;5.316;2023-06-26T08:06:52;21.60;99.90
33139;DHT22;19501;50.948;5.316;2023-06-26T08:09:19;21.30;99.90
33139;DHT22;19501;50.948;5.316;2023-06-26T08:11:45;21.50;99.90
33139;DHT22;19501;50.948;5.316;2023-06-26T08:14:12;21.60;99.90
33139;DHT22;19501;50.948;5.316;2023-06-26T08:16:41;21.70;99.90
33139;DHT22;19501;50.948;5.316;2023-06-26T08:19:07;21.80;99.90
33139;DHT22;19501;50.948;5.316;2023-06-26T08:21:33;22.00;99.90
33139;DHT22;19501;50.948;5.316;2023-06-26T08:23:59;21.80;99.90
33139;DHT22;19501;50.948;5.316;2023-06-26T08:26:25;22.00;99.90
33139;DHT22;19501;50.948;5.316;2023-06-26T08:28:50;22.00;99.90
33139;DHT22;19501;50.948;5.316;2023-06-26T08:31:16;22.10;99.90
33139;DHT22;19501;50.948;5.316;2023-06-26T08:33:42;22.20;99.90
33139;DHT22;19501;50.948;5.316;2023-06-26T08:36:08;22.40;99.90
33139;DHT22;19501;50.948;5.316;2023-06-26T08:38:34;22.10;99.90
33139;DHT22;19501;50.948;5.316;2023-06-26T08:41:00;21.90;99.90
33139;DHT22;19501;50.948;5.316;2023-06-26T08:43:26;22.00;99.90
33139;DHT22;19501;50.948;5.316;2023-06-26T08:45:52;22.30;99.90
33139;DHT22;19501;50.948;5.316;2023-06-26T08:48:21;22.30;99.90
33139;DHT22;19501;50.948;5.316;2023-06-26T08:50:48;22.30;99.90
33139;DHT22;19501;50.948;5.316;2023-06-26T08:56:21;22.10;99.90
33139;DHT22;19501;50.948;5.316;2023-06-26T08:58:48;22.30;99.90
33139;DHT22;19501;50.948;5.316;2023-06-26T09:01:13;22.30;99.90
33139;DHT22;19501;50.948;5.316;2023-06-26T09:03:39;22.40;99.90
33139;DHT22;19501;50.948;5.316;2023-06-26T09:06:07;22.30;99.90
33139;DHT22;19501;50.948;5.316;2023-06-26T09:08:32;22.20;99.90
33139;DHT22;19501;50.948;5.316;2023-06-26T09:11:00;21.90;99.90
33139;DHT22;19501;50.948;5.316;2023-06-26T09:13:28;22.00;99.90
33139;DHT22;19501;50.948;5.316;2023-06-26T09:15:55;22.40;99.90
33139;DHT22;19501;50.948;5.316;2023-06-26T09:18:24;22.90;99.90
33139;DHT22;19501;50.948;5.316;2023-06-26T09:20:50;23.00;99.90
33139;DHT22;19501;50.948;5.316;2023-06-26T09:23:16;22.70;99.90
33139;DHT22;19501;50.948;5.316;2023-06-26T09:25:42;22.40;99.90
33139;DHT22;19501;50.948;5.316;2023-06-26T09:28:09;22.20;99.90
33139;DHT22;19501;50.948;5.316;2023-06-26T09:30:36;22.00;99.90
33139;DHT22;19501;50.948;5.316;2023-06-26T09:33:15;22.30;99.90
33139;DHT22;19501;50.948;5.316;2023-06-26T09:35:41;22.60;99.90
33139;DHT22;19501;50.948;5.316;2023-06-26T09:38:07;22.60;99.90
33139;DHT22;19501;50.948;5.316;2023-06-26T09:40:33;22.90;99.90
33139;DHT22;19501;50.948;5.316;2023-06-26T09:43:04;23.20;99.90
33139;DHT22;19501;50.948;5.316;2023-06-26T09:45:33;23.20;99.90
33139;DHT22;19501;50.948;5.316;2023-06-26T09:48:02;23.30;99.90
33139;DHT22;19501;50.948;5.316;2023-06-26T09:50:29;23.20;99.90
33139;DHT22;19501;50.948;5.316;2023-06-26T09:52:55;23.30;99.90
33139;DHT22;19501;50.948;5.316;2023-06-26T09:55:21;23.10;99.90
33139;DHT22;19501;50.948;5.316;2023-06-26T09:57:49;23.20;99.80
33139;DHT22;19501;50.948;5.316;2023-06-26T10:00:15;23.40;99.90
33139;DHT22;19501;50.948;5.316;2023-06-26T10:02:41;23.50;98.90
33139;DHT22;19501;50.948;5.316;2023-06-26T10:05:07;23.50;99.90
33139;DHT22;19501;50.948;5.316;2023-06-26T10:07:33;23.70;99.10
33139;DHT22;19501;50.948;5.316;2023-06-26T10:10:01;23.90;95.70
33139;DHT22;19501;50.948;5.316;2023-06-26T10:12:29;24.00;96.30
33139;DHT22;19501;50.948;5.316;2023-06-26T10:14:58;24.20;95.60
33139;DHT22;19501;50.948;5.316;2023-06-26T10:17:28;24.10;95.70
33139;DHT22;19501;50.948;5.316;2023-06-26T10:19:58;23.80;93.60
33139;DHT22;19501;50.948;5.316;2023-06-26T10:22:29;23.60;94.90
33139;DHT22;19501;50.948;5.316;2023-06-26T10:24:59;23.90;96.20
33139;DHT22;19501;50.948;5.316;2023-06-26T10:27:32;24.20;94.30
33139;DHT22;19501;50.948;5.316;2023-06-26T10:30:03;24.40;94.90
33139;DHT22;19501;50.948;5.316;2023-06-26T10:32:31;24.20;93.50
33139;DHT22;19501;50.948;5.316;2023-06-26T10:34:57;24.30;93.60
33139;DHT22;19501;50.948;5.316;2023-06-26T10:37:45;24.50;94.20
33139;DHT22;19501;50.948;5.316;2023-06-26T10:40:12;24.50;94.00
33139;DHT22;19501;50.948;5.316;2023-06-26T10:42:39;24.20;93.80
33139;DHT22;19501;50.948;5.316;2023-06-26T10:45:15;24.30;93.90
33139;DHT22;19501;50.948;5.316;2023-06-26T10:47:41;24.00;91.80
33139;DHT22;19501;50.948;5.316;2023-06-26T10:56:01;23.10;90.90
33139;DHT22;19501;50.948;5.316;2023-06-26T11:01:22;24.30;90.60
33139;DHT22;19501;50.948;5.316;2023-06-26T11:06:27;25.50;86.80
33139;DHT22;19501;50.948;5.316;2023-06-26T11:09:05;26.10;86.70
33139;DHT22;19501;50.948;5.316;2023-06-26T11:14:20;26.50;84.30
33139;DHT22;19501;50.948;5.316;2023-06-26T11:16:49;26.40;81.80
33139;DHT22;19501;50.948;5.316;2023-06-26T11:19:16;25.80;81.80
33139;DHT22;19501;50.948;5.316;2023-06-26T11:21:42;25.70;84.90
33139;DHT22;19501;50.948;5.316;2023-06-26T11:24:10;25.90;83.90
33139;DHT22;19501;50.948;5.316;2023-06-26T11:26:42;25.80;81.80
33139;DHT22;19501;50.948;5.316;2023-06-26T11:29:09;26.10;79.60
33139;DHT22;19501;50.948;5.316;2023-06-26T11:31:36;25.70;80.10
33139;DHT22;19501;50.948;5.316;2023-06-26T11:34:09;25.40;79.10
33139;DHT22;19501;50.948;5.316;2023-06-26T11:36:37;25.00;79.20
33139;DHT22;19501;50.948;5.316;2023-06-26T11:39:05;25.30;80.60
33139;DHT22;19501;50.948;5.316;2023-06-26T11:41:37;25.80;80.90
33139;DHT22;19501;50.948;5.316;2023-06-26T11:44:04;26.20;82.10
33139;DHT22;19501;50.948;5.316;2023-06-26T11:46:30;26.40;78.60
33139;DHT22;19501;50.948;5.316;2023-06-26T11:48:56;26.50;78.90
33139;DHT22;19501;50.948;5.316;2023-06-26T11:51:22;26.40;78.30
33139;DHT22;19501;50.948;5.316;2023-06-26T11:53:50;26.40;79.60
33139;DHT22;19501;50.948;5.316;2023-06-26T11:56:17;26.20;80.70
33139;DHT22;19501;50.948;5.316;2023-06-26T12:01:47;26.80;77.00
33139;DHT22;19501;50.948;5.316;2023-06-26T12:04:16;27.70;75.30
33139;DHT22;19501;50.948;5.316;2023-06-26T12:06:45;27.30;75.80
33139;DHT22;19501;50.948;5.316;2023-06-26T12:09:12;26.70;77.20
33139;DHT22;19501;50.948;5.316;2023-06-26T12:11:44;25.60;78.20
33139;DHT22;19501;50.948;5.316;2023-06-26T12:14:10;25.50;81.40
33139;DHT22;19501;50.948;5.316;2023-06-26T12:16:37;26.30;80.30
33139;DHT22;19501;50.948;5.316;2023-06-26T12:19:07;27.30;79.20
33139;DHT22;19501;50.948;5.316;2023-06-26T12:24:00;25.70;76.50
33139;DHT22;19501;50.948;5.316;2023-06-26T12:26:28;25.60;78.10
33139;DHT22;19501;50.948;5.316;2023-06-26T12:29:11;26.60;79.20
33139;DHT22;19501;50.948;5.316;2023-06-26T12:31:40;26.50;75.80
33139;DHT22;19501;50.948;5.316;2023-06-26T12:34:14;28.20;74.10
33139;DHT22;19501;50.948;5.316;2023-06-26T12:36:47;29.20;71.90
33139;DHT22;19501;50.948;5.316;2023-06-26T12:39:21;27.80;69.90
33139;DHT22;19501;50.948;5.316;2023-06-26T12:41:48;26.50;70.90
33139;DHT22;19501;50.948;5.316;2023-06-26T12:44:18;25.80;73.40
33139;DHT22;19501;50.948;5.316;2023-06-26T12:46:47;25.10;73.60
33139;DHT22;19501;50.948;5.316;2023-06-26T12:49:13;26.00;75.80
33139;DHT22;19501;50.948;5.316;2023-06-26T12:51:39;27.60;74.40
33139;DHT22;19501;50.948;5.316;2023-06-26T12:54:05;27.10;70.90
33139;DHT22;19501;50.948;5.316;2023-06-26T12:56:31;27.30;72.60
33139;DHT22;19501;50.948;5.316;2023-06-26T12:58:57;28.40;71.10
33139;DHT22;19501;50.948;5.316;2023-06-26T13:01:22;28.40;72.40
33139;DHT22;19501;50.948;5.316;2023-06-26T13:03:50;27.70;72.20
33139;DHT22;19501;50.948;5.316;2023-06-26T13:06:21;27.10;72.10
33139;DHT22;19501;50.948;5.316;2023-06-26T13:08:47;26.70;73.50
33139;DHT22;19501;50.948;5.316;2023-06-26T13:11:13;27.40;73.30
33139;DHT22;19501;50.948;5.316;2023-06-26T13:13:38;27.50;70.90
33139;DHT22;19501;50.948;5.316;2023-06-26T13:16:04;26.90;71.50
33139;DHT22;19501;50.948;5.316;2023-06-26T13:18:30;26.10;71.70
33139;DHT22;19501;50.948;5.316;2023-06-26T13:20:56;26.60;73.00
33139;DHT22;19501;50.948;5.316;2023-06-26T13:23:21;27.90;70.20
33139;DHT22;19501;50.948;5.316;2023-06-26T13:25:47;28.30;65.60
33139;DHT22;19501;50.948;5.316;2023-06-26T13:28:13;28.10;63.70
33139;DHT22;19501;50.948;5.316;2023-06-26T13:30:38;28.30;66.10
33139;DHT22;19501;50.948;5.316;2023-06-26T13:33:04;28.30;67.00
33139;DHT22;19501;50.948;5.316;2023-06-26T13:35:30;27.60;67.10
33139;DHT22;19501;50.948;5.316;2023-06-26T13:37:55;28.00;68.20
33139;DHT22;19501;50.948;5.316;2023-06-26T13:40:21;28.90;67.40
33139;DHT22;19501;50.948;5.316;2023-06-26T13:42:46;29.20;64.50
33139;DHT22;19501;50.948;5.316;2023-06-26T13:45:12;29.60;63.80
33139;DHT22;19501;50.948;5.316;2023-06-26T13:47:38;29.40;62.90
33139;DHT22;19501;50.948;5.316;2023-06-26T13:50:08;29.10;65.20
33139;DHT22;19501;50.948;5.316;2023-06-26T13:52:34;28.90;62.40
33139;DHT22;19501;50.948;5.316;2023-06-26T13:55:00;27.50;63.00
33139;DHT22;19501;50.948;5.316;2023-06-26T13:57:25;26.50;65.50
33139;DHT22;19501;50.948;5.316;2023-06-26T13:59:52;26.10;67.70
33139;DHT22;19501;50.948;5.316;2023-06-26T14:02:18;25.40;67.60
33139;DHT22;19501;50.948;5.316;2023-06-26T14:04:44;26.20;69.10
33139;DHT22;19501;50.948;5.316;2023-06-26T14:07:12;27.20;66.80
33139;DHT22;19501;50.948;5.316;2023-06-26T14:09:37;27.50;66.00
33139;DHT22;19501;50.948;5.316;2023-06-26T14:12:06;26.90;67.70
33139;DHT22;19501;50.948;5.316;2023-06-26T14:14:32;27.10;67.70
33139;DHT22;19501;50.948;5.316;2023-06-26T14:16:57;26.90;69.20
33139;DHT22;19501;50.948;5.316;2023-06-26T14:19:24;26.80;69.30
33139;DHT22;19501;50.948;5.316;2023-06-26T14:21:51;27.40;68.60
33139;DHT22;19501;50.948;5.316;2023-06-26T14:24:16;27.70;68.80
33139;DHT22;19501;50.948;5.316;2023-06-26T14:26:42;28.50;68.40
33139;DHT22;19501;50.948;5.316;2023-06-26T14:29:08;28.30;65.10
33139;DHT22;19501;50.948;5.316;2023-06-26T14:31:33;27.00;66.70
33139;DHT22;19501;50.948;5.316;2023-06-26T14:33:59;26.70;68.40
33139;DHT22;19501;50.948;5.316;2023-06-26T14:36:25;26.20;67.60
33139;DHT22;19501;50.948;5.316;2023-06-26T14:38:52;26.20;67.80
33139;DHT22;19501;50.948;5.316;2023-06-26T14:41:18;25.90;68.20
33139;DHT22;19501;50.948;5.316;2023-06-26T14:43:46;25.60;69.20
33139;DHT22;19501;50.948;5.316;2023-06-26T14:46:11;25.80;67.90
33139;DHT22;19501;50.948;5.316;2023-06-26T14:48:37;25.70;67.40
33139;DHT22;19501;50.948;5.316;2023-06-26T14:51:03;25.70;67.60
33139;DHT22;19501;50.948;5.316;2023-06-26T14:53:29;25.60;67.00
33139;DHT22;19501;50.948;5.316;2023-06-26T14:55:55;25.50;67.10
33139;DHT22;19501;50.948;5.316;2023-06-26T14:58:21;25.70;69.20
33139;DHT22;19501;50.948;5.316;2023-06-26T15:00:46;25.60;70.10
33139;DHT22;19501;50.948;5.316;2023-06-26T15:03:13;25.90;69.40
33139;DHT22;19501;50.948;5.316;2023-06-26T15:05:39;25.70;68.60
33139;DHT22;19501;50.948;5.316;2023-06-26T15:08:05;25.60;69.40
33139;DHT22;19501;50.948;5.316;2023-06-26T15:10:35;25.70;68.90
33139;DHT22;19501;50.948;5.316;2023-06-26T15:13:01;25.60;68.40
33139;DHT22;19501;50.948;5.316;2023-06-26T15:15:26;25.60;68.90
33139;DHT22;19501;50.948;5.316;2023-06-26T15:17:52;25.40;68.90
33139;DHT22;19501;50.948;5.316;2023-06-26T15:33:49;26.10;68.90
33139;DHT22;19501;50.948;5.316;2023-06-26T15:36:15;26.00;68.90
33139;DHT22;19501;50.948;5.316;2023-06-26T15:38:41;25.80;67.80
33139;DHT22;19501;50.948;5.316;2023-06-26T15:41:06;25.50;68.10
33139;DHT22;19501;50.948;5.316;2023-06-26T15:43:33;25.50;67.90
33139;DHT22;19501;50.948;5.316;2023-06-26T15:45:59;25.70;68.50
33139;DHT22;19501;50.948;5.316;2023-06-26T15:48:24;25.70;67.20
33139;DHT22;19501;50.948;5.316;2023-06-26T15:50:51;25.30;68.70
33139;DHT22;19501;50.948;5.316;2023-06-26T15:53:16;25.30;68.50
33139;DHT22;19501;50.948;5.316;2023-06-26T15:55:43;25.20;69.30
33139;DHT22;19501;50.948;5.316;2023-06-26T15:58:09;25.10;69.50
33139;DHT22;19501;50.948;5.316;2023-06-26T16:00:34;24.70;68.80
33139;DHT22;19501;50.948;5.316;2023-06-26T16:03:00;24.70;70.20
33139;DHT22;19501;50.948;5.316;2023-06-26T16:05:25;24.90;71.50
33139;DHT22;19501;50.948;5.316;2023-06-26T16:07:51;24.90;72.30
33139;DHT22;19501;50.948;5.316;2023-06-26T16:10:17;24.50;74.30